createdAt,value
2019-02-14T00:00:38.925Z,8.20
2019-02-14T00:01:16.984Z,8.20
2019-02-14T00:01:54.592Z,8.20
2019-02-14T00:02:32.184Z,8.20
2019-02-14T00:03:09.732Z,8.20
2019-02-14T00:03:47.355Z,8.20
2019-02-14T00:04:25.088Z,8.30
2019-02-14T00:05:02.390Z,8.20
2019-02-14T00:05:39.968Z,8.20
2019-02-14T00:06:17.860Z,8.20
2019-02-14T00:06:55.442Z,8.20
2019-02-14T00:07:33.271Z,8.20
2019-02-14T00:08:10.364Z,8.20
2019-02-14T00:08:47.672Z,8.20
2019-02-14T00:09:25.160Z,8.20
2019-02-14T00:10:02.465Z,8.20
2019-02-14T00:10:40.411Z,8.20
2019-02-14T00:11:20.140Z,8.20
2019-02-14T00:11:57.442Z,8.20
2019-02-14T00:12:35.095Z,8.20
2019-02-14T00:13:12.716Z,8.30
2019-02-14T00:13:50.446Z,8.30
2019-02-14T00:14:27.868Z,8.30
2019-02-14T00:15:05.504Z,8.30
2019-02-14T00:15:42.904Z,8.30
2019-02-14T00:16:20.304Z,8.30
2019-02-14T00:16:58.452Z,8.30
2019-02-14T00:17:36.135Z,8.30
2019-02-14T00:18:13.520Z,8.30
2019-02-14T00:18:51.333Z,8.30
2019-02-14T00:19:28.880Z,8.30
2019-02-14T00:20:07.165Z,8.20
2019-02-14T00:20:44.824Z,8.30
2019-02-14T00:21:22.750Z,8.30
2019-02-14T00:22:00.132Z,8.30
2019-02-14T00:22:36.965Z,8.30
2019-02-14T00:23:14.636Z,8.30
2019-02-14T00:23:52.612Z,8.30
2019-02-14T00:24:29.964Z,8.30
2019-02-14T00:25:08.029Z,8.30
2019-02-14T00:25:45.764Z,8.30
2019-02-14T00:26:23.370Z,8.30
2019-02-14T00:27:01.308Z,8.30
2019-02-14T00:27:38.866Z,8.30
2019-02-14T00:28:16.450Z,8.30
2019-02-14T00:28:54.282Z,8.30
2019-02-14T00:29:32.688Z,8.30
2019-02-14T00:30:10.645Z,8.30
2019-02-14T00:30:48.828Z,8.30
2019-02-14T00:31:28.167Z,8.30
2019-02-14T00:32:06.269Z,8.30
2019-02-14T00:32:44.148Z,8.30
2019-02-14T00:33:21.429Z,8.30
2019-02-14T00:33:59.046Z,8.30
2019-02-14T00:34:36.789Z,8.30
2019-02-14T00:35:13.879Z,8.30
2019-02-14T00:35:51.466Z,8.30
2019-02-14T00:36:28.992Z,8.30
2019-02-14T00:37:06.530Z,8.30
2019-02-14T00:37:43.975Z,8.30
2019-02-14T00:38:21.975Z,8.30
2019-02-14T00:38:59.124Z,8.30
2019-02-14T00:39:36.420Z,8.30
2019-02-14T00:40:14.428Z,8.30
2019-02-14T00:40:52.337Z,8.30
2019-02-14T00:41:30.436Z,8.20
2019-02-14T00:42:07.837Z,8.30
2019-02-14T00:42:45.450Z,8.30
2019-02-14T00:43:22.746Z,8.30
2019-02-14T00:44:00.422Z,8.20
2019-02-14T00:44:38.060Z,8.20
2019-02-14T00:45:17.126Z,8.30
2019-02-14T00:45:54.431Z,8.20
2019-02-14T00:46:32.062Z,8.20
2019-02-14T00:47:09.711Z,8.20
2019-02-14T00:47:47.264Z,8.20
2019-02-14T00:48:44.036Z,8.20
2019-02-14T00:49:21.717Z,8.20
2019-02-14T00:49:59.596Z,8.20
2019-02-14T00:50:36.968Z,8.20
2019-02-14T00:51:14.588Z,8.20
2019-02-14T00:51:51.606Z,8.20
2019-02-14T00:52:29.288Z,8.20
2019-02-14T00:53:06.898Z,8.20
2019-02-14T00:53:44.296Z,8.20
2019-02-14T00:54:21.808Z,8.20
2019-02-14T00:54:59.207Z,8.20
2019-02-14T00:55:36.840Z,8.20
2019-02-14T00:56:14.964Z,8.20
2019-02-14T00:56:52.688Z,8.20
2019-02-14T00:57:30.655Z,8.20
2019-02-14T00:58:08.560Z,8.20
2019-02-14T00:58:45.864Z,8.20
2019-02-14T00:59:23.111Z,8.30
2019-02-14T01:00:00.297Z,8.30
2019-02-14T01:00:37.412Z,8.30
2019-02-14T01:01:14.450Z,8.20
2019-02-14T01:01:52.268Z,8.20
2019-02-14T01:02:29.740Z,8.20
2019-02-14T01:03:21.558Z,8.20
2019-02-14T01:04:18.482Z,8.20
2019-02-14T01:04:56.790Z,8.20
2019-02-14T01:05:43.293Z,8.20
2019-02-14T01:06:20.048Z,8.20
2019-02-14T01:06:58.030Z,8.30
2019-02-14T01:07:36.110Z,8.20
2019-02-14T01:08:13.596Z,8.20
2019-02-14T01:08:51.276Z,8.30
2019-02-14T01:09:28.768Z,8.20
2019-02-14T01:10:06.783Z,8.20
2019-02-14T01:10:44.439Z,8.30
2019-02-14T01:11:21.984Z,8.30
2019-02-14T01:11:59.560Z,8.30
2019-02-14T01:12:36.941Z,8.30
2019-02-14T01:13:14.532Z,8.30
2019-02-14T01:13:51.905Z,8.20
2019-02-14T01:14:29.790Z,8.20
2019-02-14T01:15:08.533Z,8.20
2019-02-14T01:15:46.120Z,8.20
2019-02-14T01:16:23.634Z,8.20
2019-02-14T01:17:01.915Z,8.20
2019-02-14T01:17:39.621Z,8.20
2019-02-14T01:18:17.568Z,8.20
2019-02-14T01:18:55.340Z,8.20
2019-02-14T01:19:32.797Z,8.20
2019-02-14T01:20:10.720Z,8.20
2019-02-14T01:20:48.014Z,8.20
2019-02-14T01:21:25.712Z,8.20
2019-02-14T01:22:03.420Z,8.20
2019-02-14T01:22:40.749Z,8.20
2019-02-14T01:23:18.329Z,8.20
2019-02-14T01:23:55.592Z,8.20
2019-02-14T01:24:32.652Z,8.20
2019-02-14T01:25:10.141Z,8.20
2019-02-14T01:25:47.784Z,8.20
2019-02-14T01:26:25.190Z,8.20
2019-02-14T01:27:02.921Z,8.20
2019-02-14T01:27:40.805Z,8.20
2019-02-14T01:28:18.548Z,8.20
2019-02-14T01:28:56.472Z,8.20
2019-02-14T01:29:35.457Z,8.10
2019-02-14T01:30:12.902Z,8.20
2019-02-14T01:30:50.429Z,8.20
2019-02-14T01:31:28.415Z,8.20
2019-02-14T01:32:06.200Z,8.20
2019-02-14T01:32:44.061Z,8.20
2019-02-14T01:33:22.080Z,8.20
2019-02-14T01:33:59.508Z,8.20
2019-02-14T01:34:37.576Z,8.20
2019-02-14T01:35:16.310Z,8.20
2019-02-14T01:35:54.264Z,8.20
2019-02-14T01:36:32.518Z,8.20
2019-02-14T01:37:10.144Z,8.20
2019-02-14T01:37:48.289Z,8.20
2019-02-14T01:38:26.058Z,8.20
2019-02-14T01:39:04.462Z,8.20
2019-02-14T01:39:41.808Z,8.20
2019-02-14T01:40:19.784Z,8.20
2019-02-14T01:40:57.672Z,8.20
2019-02-14T01:41:35.734Z,8.20
2019-02-14T01:42:15.312Z,8.20
2019-02-14T01:42:52.956Z,8.20
2019-02-14T01:43:30.068Z,8.20
2019-02-14T01:44:09.953Z,8.20
2019-02-14T01:44:48.003Z,8.20
2019-02-14T01:45:25.806Z,8.10
2019-02-14T01:46:03.726Z,8.20
2019-02-14T01:46:41.232Z,8.20
2019-02-14T01:47:18.462Z,8.20
2019-02-14T01:47:56.069Z,8.20
2019-02-14T01:48:33.706Z,8.20
2019-02-14T01:49:11.750Z,8.20
2019-02-14T01:49:49.566Z,8.20
2019-02-14T01:50:27.468Z,8.20
2019-02-14T01:51:05.136Z,8.20
2019-02-14T01:51:42.846Z,8.20
2019-02-14T01:52:20.244Z,8.20
2019-02-14T01:52:57.304Z,8.10
2019-02-14T01:53:34.662Z,8.10
2019-02-14T01:54:12.428Z,8.10
2019-02-14T01:54:49.768Z,8.10
2019-02-14T01:55:27.132Z,8.10
2019-02-14T01:56:04.679Z,8.10
2019-02-14T01:56:42.321Z,8.10
2019-02-14T01:57:19.672Z,8.10
2019-02-14T01:57:59.140Z,8.10
2019-02-14T01:58:36.568Z,8.10
2019-02-14T01:59:14.124Z,8.10
2019-02-14T01:59:51.178Z,8.10
2019-02-14T02:00:28.916Z,8.10
2019-02-14T02:01:06.468Z,8.10
2019-02-14T02:01:44.086Z,8.10
2019-02-14T02:02:23.561Z,8.10
2019-02-14T02:03:00.922Z,8.10
2019-02-14T02:03:37.977Z,8.10
2019-02-14T02:04:16.049Z,8.10
2019-02-14T02:04:53.836Z,8.10
2019-02-14T02:05:31.018Z,8.10
2019-02-14T02:06:08.680Z,8.10
2019-02-14T02:06:46.623Z,8.10
2019-02-14T02:07:24.106Z,8.10
2019-02-14T02:08:02.231Z,8.10
2019-02-14T02:08:40.088Z,8.10
2019-02-14T02:09:17.661Z,8.10
2019-02-14T02:09:55.722Z,8.10
2019-02-14T02:10:33.428Z,8.10
2019-02-14T02:11:11.112Z,8.10
2019-02-14T02:11:48.810Z,8.10
2019-02-14T02:12:26.510Z,8.10
2019-02-14T02:13:04.260Z,8.10
2019-02-14T02:13:41.879Z,8.10
2019-02-14T02:14:19.128Z,8.10
2019-02-14T02:14:56.247Z,8.10
2019-02-14T02:15:33.972Z,8.10
2019-02-14T02:16:10.991Z,8.10
2019-02-14T02:16:48.837Z,8.10
2019-02-14T02:17:26.493Z,8.10
2019-02-14T02:18:04.405Z,8.10
2019-02-14T02:18:41.757Z,8.10
2019-02-14T02:19:19.412Z,8.10
2019-02-14T02:19:57.256Z,8.20
2019-02-14T02:20:34.602Z,8.20
2019-02-14T02:21:13.882Z,8.20
2019-02-14T02:21:51.780Z,8.20
2019-02-14T02:22:29.408Z,8.20
2019-02-14T02:23:08.734Z,8.20
2019-02-14T02:23:46.473Z,8.20
2019-02-14T02:24:24.014Z,8.20
2019-02-14T02:25:01.613Z,8.20
2019-02-14T02:25:39.207Z,8.20
2019-02-14T02:26:17.196Z,8.20
2019-02-14T02:26:55.200Z,8.20
2019-02-14T02:27:35.576Z,8.10
2019-02-14T02:28:12.802Z,8.10
2019-02-14T02:28:52.657Z,8.20
2019-02-14T02:29:30.336Z,8.20
2019-02-14T02:30:10.121Z,8.20
2019-02-14T02:30:47.204Z,8.20
2019-02-14T02:31:24.583Z,8.20
2019-02-14T02:32:02.331Z,8.20
2019-02-14T02:32:39.633Z,8.20
2019-02-14T02:33:17.113Z,8.20
2019-02-14T02:33:54.577Z,8.20
2019-02-14T02:34:32.260Z,8.20
2019-02-14T02:35:09.996Z,8.20
2019-02-14T02:35:47.286Z,8.20
2019-02-14T02:36:24.610Z,8.20
2019-02-14T02:37:02.497Z,8.20
2019-02-14T02:37:40.200Z,8.20
2019-02-14T02:38:17.506Z,8.20
2019-02-14T02:38:55.042Z,8.20
2019-02-14T02:39:32.045Z,8.20
2019-02-14T02:40:10.052Z,8.20
2019-02-14T02:40:47.641Z,8.20
2019-02-14T02:41:24.974Z,8.20
2019-02-14T02:42:02.547Z,8.20
2019-02-14T02:42:41.305Z,8.10
2019-02-14T02:43:19.196Z,8.10
2019-02-14T02:43:56.523Z,8.10
2019-02-14T02:44:33.761Z,8.10
2019-02-14T02:45:12.834Z,8.10
2019-02-14T02:45:52.187Z,8.10
2019-02-14T02:46:29.608Z,8.10
2019-02-14T02:47:07.476Z,8.10
2019-02-14T02:47:45.948Z,8.10
2019-02-14T02:48:23.628Z,8.10
2019-02-14T02:49:04.256Z,8.10
2019-02-14T02:49:41.896Z,8.10
2019-02-14T02:50:19.428Z,8.10
2019-02-14T02:50:56.545Z,8.10
2019-02-14T02:51:34.218Z,8.10
2019-02-14T02:52:12.009Z,8.10
2019-02-14T02:52:49.494Z,8.10
2019-02-14T02:53:27.125Z,8.10
2019-02-14T02:54:05.111Z,8.10
2019-02-14T02:54:42.512Z,8.10
2019-02-14T02:55:22.529Z,8.10
2019-02-14T02:56:00.061Z,8.00
2019-02-14T02:56:37.652Z,8.10
2019-02-14T02:57:15.042Z,8.10
2019-02-14T02:57:53.098Z,8.10
2019-02-14T02:58:30.666Z,8.10
2019-02-14T02:59:08.840Z,8.10
2019-02-14T02:59:46.457Z,8.10
2019-02-14T03:00:24.108Z,8.10
2019-02-14T03:01:02.731Z,8.10
2019-02-14T03:01:40.384Z,8.10
2019-02-14T03:02:17.677Z,8.10
2019-02-14T03:02:54.919Z,8.10
2019-02-14T03:03:32.408Z,8.10
2019-02-14T03:04:10.105Z,8.10
2019-02-14T03:04:47.370Z,8.10
2019-02-14T03:05:24.949Z,8.10
2019-02-14T03:06:10.226Z,8.10
2019-02-14T03:06:41.524Z,8.10
2019-02-14T03:07:18.907Z,8.10
2019-02-14T03:07:56.610Z,8.10
2019-02-14T03:08:34.369Z,8.10
2019-02-14T03:09:12.079Z,8.10
2019-02-14T03:09:49.645Z,8.10
2019-02-14T03:10:27.148Z,8.10
2019-02-14T03:11:04.348Z,8.10
2019-02-14T03:11:42.209Z,8.10
2019-02-14T03:12:20.057Z,8.10
2019-02-14T03:12:57.913Z,8.10
2019-02-14T03:13:35.163Z,8.10
2019-02-14T03:14:13.089Z,8.10
2019-02-14T03:14:51.061Z,8.10
2019-02-14T03:15:28.696Z,8.20
2019-02-14T03:16:06.143Z,8.20
2019-02-14T03:16:43.869Z,8.20
2019-02-14T03:17:23.093Z,8.20
2019-02-14T03:18:19.809Z,8.20
2019-02-14T03:18:58.414Z,8.20
2019-02-14T03:19:35.992Z,8.10
2019-02-14T03:20:13.565Z,8.10
2019-02-14T03:20:51.737Z,8.10
2019-02-14T03:21:29.682Z,8.10
2019-02-14T03:22:07.472Z,8.10
2019-02-14T03:22:45.150Z,8.10
2019-02-14T03:23:23.084Z,8.10
2019-02-14T03:24:00.823Z,8.10
2019-02-14T03:24:38.717Z,8.10
2019-02-14T03:25:17.248Z,8.10
2019-02-14T03:25:54.453Z,8.10
2019-02-14T03:26:32.131Z,8.10
2019-02-14T03:27:09.709Z,8.10
2019-02-14T03:27:47.870Z,8.10
2019-02-14T03:28:25.764Z,8.10
2019-02-14T03:29:03.656Z,8.10
2019-02-14T03:29:41.203Z,8.00
2019-02-14T03:30:18.609Z,8.00
2019-02-14T03:30:56.499Z,8.00
2019-02-14T03:31:34.531Z,8.00
2019-02-14T03:32:12.564Z,8.00
2019-02-14T03:32:50.016Z,8.00
2019-02-14T03:33:27.989Z,8.00
2019-02-14T03:34:05.107Z,8.00
2019-02-14T03:34:42.736Z,8.00
2019-02-14T03:35:20.277Z,8.00
2019-02-14T03:35:57.562Z,8.00
2019-02-14T03:36:35.329Z,8.00
2019-02-14T03:37:12.728Z,8.00
2019-02-14T03:37:52.320Z,8.00
2019-02-14T03:38:29.395Z,8.00
2019-02-14T03:39:08.900Z,8.00
2019-02-14T03:39:46.731Z,8.00
2019-02-14T03:40:24.524Z,8.00
2019-02-14T03:41:04.911Z,8.00
2019-02-14T03:41:45.727Z,8.00
2019-02-14T03:42:24.381Z,8.00
2019-02-14T03:43:01.747Z,8.00
2019-02-14T03:43:39.645Z,8.00
2019-02-14T03:44:16.955Z,8.00
2019-02-14T03:44:54.949Z,8.00
2019-02-14T03:45:32.283Z,8.00
2019-02-14T03:46:16.117Z,8.00
2019-02-14T03:46:53.289Z,8.00
2019-02-14T03:47:31.257Z,8.00
2019-02-14T03:48:08.874Z,8.00
2019-02-14T03:48:46.491Z,8.00
2019-02-14T03:49:23.944Z,8.00
2019-02-14T03:50:00.992Z,8.00
2019-02-14T03:50:38.619Z,8.00
2019-02-14T03:51:16.101Z,8.00
2019-02-14T03:51:53.627Z,8.00
2019-02-14T03:52:31.329Z,8.00
2019-02-14T03:53:08.655Z,8.00
2019-02-14T03:53:46.013Z,8.00
2019-02-14T03:54:23.745Z,8.00
2019-02-14T03:55:01.692Z,8.00
2019-02-14T03:55:39.704Z,8.00
2019-02-14T03:56:17.361Z,8.00
2019-02-14T03:56:55.145Z,8.00
2019-02-14T03:57:32.891Z,8.00
2019-02-14T03:58:10.993Z,8.00
2019-02-14T03:58:48.403Z,8.00
2019-02-14T03:59:25.933Z,8.00
2019-02-14T04:00:03.405Z,7.90
2019-02-14T04:00:41.303Z,7.90
2019-02-14T04:01:18.981Z,7.90
2019-02-14T04:01:56.651Z,7.90
2019-02-14T04:02:34.303Z,7.90
2019-02-14T04:03:12.003Z,7.90
2019-02-14T04:03:50.822Z,7.90
2019-02-14T04:04:28.467Z,7.90
2019-02-14T04:05:06.845Z,7.90
2019-02-14T04:05:44.357Z,7.90
2019-02-14T04:06:27.583Z,7.90
2019-02-14T04:07:01.420Z,7.90
2019-02-14T04:07:39.421Z,7.90
2019-02-14T04:08:17.691Z,7.90
2019-02-14T04:08:55.282Z,7.90
2019-02-14T04:09:32.593Z,7.90
2019-02-14T04:10:11.570Z,7.90
2019-02-14T04:10:49.355Z,7.90
2019-02-14T04:11:27.463Z,7.80
2019-02-14T04:12:05.344Z,7.80
2019-02-14T04:12:42.929Z,7.80
2019-02-14T04:13:20.139Z,7.80
2019-02-14T04:13:57.829Z,7.90
2019-02-14T04:14:35.356Z,7.90
2019-02-14T04:15:14.795Z,7.90
2019-02-14T04:15:52.879Z,7.90
2019-02-14T04:16:30.919Z,7.90
2019-02-14T04:17:09.029Z,7.80
2019-02-14T04:17:46.463Z,7.90
2019-02-14T04:18:24.471Z,7.90
2019-02-14T04:19:04.396Z,7.90
2019-02-14T04:19:42.167Z,7.90
2019-02-14T04:20:19.641Z,7.90
2019-02-14T04:20:56.727Z,7.90
2019-02-14T04:21:34.459Z,7.90
2019-02-14T04:22:12.443Z,7.90
2019-02-14T04:22:49.855Z,7.90
2019-02-14T04:23:27.443Z,7.90
2019-02-14T04:24:05.125Z,7.90
2019-02-14T04:24:42.595Z,7.90
2019-02-14T04:25:19.895Z,7.90
2019-02-14T04:25:57.900Z,7.90
2019-02-14T04:26:35.638Z,7.80
2019-02-14T04:27:13.367Z,7.80
2019-02-14T04:27:51.221Z,7.90
2019-02-14T04:28:29.207Z,7.80
2019-02-14T04:29:07.004Z,7.80
2019-02-14T04:29:44.711Z,7.80
2019-02-14T04:30:22.647Z,7.80
2019-02-14T04:30:59.688Z,7.80
2019-02-14T04:31:37.119Z,7.80
2019-02-14T04:32:14.263Z,7.80
2019-02-14T04:32:51.499Z,7.80
2019-02-14T04:33:28.912Z,7.80
2019-02-14T04:34:06.963Z,7.80
2019-02-14T04:34:44.837Z,7.80
2019-02-14T04:35:22.301Z,7.90
2019-02-14T04:35:59.988Z,7.80
2019-02-14T04:36:37.370Z,7.80
2019-02-14T04:37:15.067Z,7.80
2019-02-14T04:37:52.812Z,7.80
2019-02-14T04:38:30.544Z,7.80
2019-02-14T04:39:08.914Z,7.80
2019-02-14T04:39:47.319Z,7.80
2019-02-14T04:40:33.248Z,7.80
2019-02-14T04:41:04.005Z,7.90
2019-02-14T04:41:41.591Z,7.80
2019-02-14T04:42:19.553Z,7.90
2019-02-14T04:42:57.572Z,7.90
2019-02-14T04:43:36.401Z,7.90
2019-02-14T04:44:13.759Z,7.90
2019-02-14T04:44:50.829Z,7.90
2019-02-14T04:45:28.535Z,7.90
2019-02-14T04:46:06.395Z,7.80
2019-02-14T04:46:43.986Z,7.90
2019-02-14T04:47:21.360Z,7.90
2019-02-14T04:47:58.846Z,7.90
2019-02-14T04:48:36.959Z,7.90
2019-02-14T04:49:14.304Z,7.80
2019-02-14T04:49:52.092Z,7.80
2019-02-14T04:50:29.773Z,7.80
2019-02-14T04:51:07.254Z,7.80
2019-02-14T04:51:45.139Z,7.80
2019-02-14T04:52:23.060Z,7.80
2019-02-14T04:53:00.991Z,7.80
2019-02-14T04:53:38.941Z,7.80
2019-02-14T04:54:16.961Z,7.80
2019-02-14T04:54:54.685Z,7.80
2019-02-14T04:55:32.367Z,7.80
2019-02-14T04:56:10.366Z,7.80
2019-02-14T04:56:48.143Z,7.80
2019-02-14T04:57:25.809Z,7.80
2019-02-14T04:58:03.511Z,7.70
2019-02-14T04:58:41.371Z,7.70
2019-02-14T04:59:19.296Z,7.70
2019-02-14T04:59:57.175Z,7.70
2019-02-14T05:00:34.784Z,7.70
2019-02-14T05:01:12.779Z,7.70
2019-02-14T05:01:50.841Z,7.70
2019-02-14T05:02:28.558Z,7.70
2019-02-14T05:03:06.110Z,7.70
2019-02-14T05:03:44.220Z,7.70
2019-02-14T05:04:21.880Z,7.70
2019-02-14T05:04:59.518Z,7.70
2019-02-14T05:05:37.176Z,7.70
2019-02-14T05:06:14.928Z,7.70
2019-02-14T05:06:52.479Z,7.70
2019-02-14T05:07:30.116Z,7.70
2019-02-14T05:08:07.491Z,7.70
2019-02-14T05:08:45.206Z,7.70
2019-02-14T05:09:23.044Z,7.70
2019-02-14T05:10:00.754Z,7.70
2019-02-14T05:10:40.484Z,7.80
2019-02-14T05:11:18.164Z,7.80
2019-02-14T05:11:56.100Z,7.70
2019-02-14T05:12:34.043Z,7.80
2019-02-14T05:13:11.500Z,7.80
2019-02-14T05:13:50.615Z,7.70
2019-02-14T05:14:28.223Z,7.70
2019-02-14T05:15:06.750Z,7.70
2019-02-14T05:15:44.487Z,7.70
2019-02-14T05:16:22.192Z,7.70
2019-02-14T05:16:59.882Z,7.70
2019-02-14T05:17:37.670Z,7.70
2019-02-14T05:18:14.706Z,7.70
2019-02-14T05:18:52.159Z,7.70
2019-02-14T05:19:32.838Z,7.80
2019-02-14T05:20:11.169Z,7.80
2019-02-14T05:20:48.562Z,7.80
2019-02-14T05:21:26.656Z,7.80
2019-02-14T05:22:04.520Z,7.80
2019-02-14T05:22:42.489Z,7.80
2019-02-14T05:23:20.199Z,7.80
2019-02-14T05:23:57.686Z,7.80
2019-02-14T05:24:35.025Z,7.80
2019-02-14T05:25:12.502Z,7.80
2019-02-14T05:25:49.695Z,7.80
2019-02-14T05:26:27.748Z,7.80
2019-02-14T05:27:05.587Z,7.80
2019-02-14T05:27:50.548Z,7.80
2019-02-14T05:28:40.814Z,7.80
2019-02-14T05:29:18.855Z,7.80
2019-02-14T05:29:56.581Z,7.80
2019-02-14T05:30:34.451Z,7.80
2019-02-14T05:31:12.145Z,7.80
2019-02-14T05:31:50.017Z,7.80
2019-02-14T05:32:27.500Z,7.80
2019-02-14T05:33:04.950Z,7.80
2019-02-14T05:33:42.692Z,7.80
2019-02-14T05:34:20.638Z,7.80
2019-02-14T05:34:58.540Z,7.70
2019-02-14T05:35:36.560Z,7.70
2019-02-14T05:36:14.263Z,7.70
2019-02-14T05:36:54.660Z,7.70
2019-02-14T05:37:31.419Z,7.70
2019-02-14T05:38:08.415Z,7.70
2019-02-14T05:38:46.420Z,7.70
2019-02-14T05:39:24.383Z,7.70
2019-02-14T05:40:02.390Z,7.70
2019-02-14T05:40:40.383Z,7.70
2019-02-14T05:41:18.217Z,7.70
2019-02-14T05:41:55.616Z,7.70
2019-02-14T05:42:33.250Z,7.70
2019-02-14T05:43:11.370Z,7.70
2019-02-14T05:43:49.404Z,7.70
2019-02-14T05:44:27.408Z,7.70
2019-02-14T05:45:05.109Z,7.70
2019-02-14T05:45:42.978Z,7.70
2019-02-14T05:46:20.372Z,7.70
2019-02-14T05:46:57.715Z,7.70
2019-02-14T05:47:35.008Z,7.70
2019-02-14T05:48:12.447Z,7.70
2019-02-14T05:48:53.816Z,7.70
2019-02-14T05:49:30.870Z,7.70
2019-02-14T05:50:09.016Z,7.70
2019-02-14T05:50:46.644Z,7.70
2019-02-14T05:51:24.696Z,7.70
2019-02-14T05:52:02.186Z,7.70
2019-02-14T05:52:39.608Z,7.70
2019-02-14T05:53:17.135Z,7.70
2019-02-14T05:53:55.203Z,7.70
2019-02-14T05:54:33.172Z,7.70
2019-02-14T05:55:11.655Z,7.70
2019-02-14T05:55:49.536Z,7.70
2019-02-14T05:56:27.580Z,7.70
2019-02-14T05:57:05.369Z,7.70
2019-02-14T05:57:43.335Z,7.70
2019-02-14T05:58:21.220Z,7.70
2019-02-14T05:58:59.313Z,7.70
2019-02-14T05:59:37.367Z,7.70
2019-02-14T06:00:15.392Z,7.70
2019-02-14T06:00:52.874Z,7.70
2019-02-14T06:01:30.592Z,7.70
2019-02-14T06:02:08.284Z,7.70
2019-02-14T06:02:46.414Z,7.70
2019-02-14T06:03:23.834Z,7.70
2019-02-14T06:04:01.803Z,7.70
2019-02-14T06:04:39.848Z,7.70
2019-02-14T06:05:17.848Z,7.70
2019-02-14T06:05:55.268Z,7.70
2019-02-14T06:06:32.968Z,7.70
2019-02-14T06:07:10.757Z,7.70
2019-02-14T06:07:47.898Z,7.70
2019-02-14T06:08:25.215Z,7.70
2019-02-14T06:09:02.756Z,7.70
2019-02-14T06:09:40.464Z,7.70
2019-02-14T06:10:19.748Z,7.70
2019-02-14T06:10:57.774Z,7.70
2019-02-14T06:11:34.926Z,7.60
2019-02-14T06:12:12.643Z,7.60
2019-02-14T06:12:50.575Z,7.60
2019-02-14T06:13:28.356Z,7.60
2019-02-14T06:14:07.332Z,7.60
2019-02-14T06:14:45.349Z,7.60
2019-02-14T06:15:23.404Z,7.60
2019-02-14T06:16:00.914Z,7.60
2019-02-14T06:16:38.730Z,7.60
2019-02-14T06:17:16.180Z,7.60
2019-02-14T06:17:54.142Z,7.60
2019-02-14T06:18:31.901Z,7.60
2019-02-14T06:19:09.390Z,7.60
2019-02-14T06:19:47.398Z,7.60
2019-02-14T06:20:24.867Z,7.60
2019-02-14T06:21:01.970Z,7.60
2019-02-14T06:21:39.842Z,7.60
2019-02-14T06:22:17.318Z,7.60
2019-02-14T06:22:54.996Z,7.60
2019-02-14T06:23:32.653Z,7.60
2019-02-14T06:24:10.685Z,7.60
2019-02-14T06:24:48.697Z,7.60
2019-02-14T06:25:26.757Z,7.60
2019-02-14T06:26:04.586Z,7.60
2019-02-14T06:26:42.519Z,7.60
2019-02-14T06:27:20.404Z,7.60
2019-02-14T06:27:57.780Z,7.60
2019-02-14T06:28:37.271Z,7.60
2019-02-14T06:29:14.992Z,7.60
2019-02-14T06:29:52.896Z,7.60
2019-02-14T06:30:29.585Z,7.60
2019-02-14T06:31:06.908Z,7.60
2019-02-14T06:31:44.517Z,7.60
2019-02-14T06:32:22.144Z,7.60
2019-02-14T06:32:59.466Z,7.60
2019-02-14T06:33:37.160Z,7.60
2019-02-14T06:34:14.551Z,7.60
2019-02-14T06:34:52.388Z,7.60
2019-02-14T06:35:29.516Z,7.60
2019-02-14T06:36:07.263Z,7.60
2019-02-14T06:36:44.348Z,7.60
2019-02-14T06:37:22.015Z,7.50
2019-02-14T06:37:59.796Z,7.60
2019-02-14T06:38:37.260Z,7.60
2019-02-14T06:39:14.955Z,7.50
2019-02-14T06:39:52.645Z,7.60
2019-02-14T06:40:30.696Z,7.60
2019-02-14T06:41:08.678Z,7.60
2019-02-14T06:41:46.034Z,7.60
2019-02-14T06:42:23.616Z,7.60
2019-02-14T06:43:00.842Z,7.60
2019-02-14T06:43:38.624Z,7.60
2019-02-14T06:44:16.261Z,7.60
2019-02-14T06:44:54.296Z,7.60
2019-02-14T06:45:32.408Z,7.60
2019-02-14T06:46:09.884Z,7.60
2019-02-14T06:46:47.893Z,7.60
2019-02-14T06:47:25.593Z,7.60
2019-02-14T06:48:03.586Z,7.60
2019-02-14T06:48:41.859Z,7.60
2019-02-14T06:49:19.736Z,7.60
2019-02-14T06:49:59.184Z,7.60
2019-02-14T06:50:37.170Z,7.60
2019-02-14T06:51:15.088Z,7.60
2019-02-14T06:51:53.204Z,7.60
2019-02-14T06:52:30.964Z,7.60
2019-02-14T06:53:11.712Z,7.60
2019-02-14T06:53:49.726Z,7.60
2019-02-14T06:54:27.674Z,7.60
2019-02-14T06:55:05.158Z,7.60
2019-02-14T06:55:42.508Z,7.60
2019-02-14T06:56:20.296Z,7.60
2019-02-14T06:56:57.986Z,7.60
2019-02-14T06:57:35.774Z,7.60
2019-02-14T06:58:13.484Z,7.60
2019-02-14T06:58:51.168Z,7.60
2019-02-14T06:59:28.970Z,7.60
2019-02-14T07:00:07.176Z,7.60
2019-02-14T07:00:45.004Z,7.60
2019-02-14T07:01:22.391Z,7.60
2019-02-14T07:02:00.116Z,7.60
2019-02-14T07:02:37.786Z,7.60
2019-02-14T07:03:15.568Z,7.60
2019-02-14T07:03:53.659Z,7.60
2019-02-14T07:04:31.358Z,7.60
2019-02-14T07:05:09.608Z,7.50
2019-02-14T07:05:47.720Z,7.60
2019-02-14T07:06:25.724Z,7.60
2019-02-14T07:07:03.223Z,7.60
2019-02-14T07:07:40.944Z,7.60
2019-02-14T07:08:18.638Z,7.60
2019-02-14T07:08:56.439Z,7.60
2019-02-14T07:09:35.864Z,7.60
2019-02-14T07:10:13.477Z,7.60
2019-02-14T07:10:51.226Z,7.50
2019-02-14T07:11:28.735Z,7.60
2019-02-14T07:12:06.592Z,7.60
2019-02-14T07:12:43.786Z,7.60
2019-02-14T07:13:21.516Z,7.50
2019-02-14T07:14:18.304Z,7.60
2019-02-14T07:14:56.137Z,7.60
2019-02-14T07:15:52.372Z,7.60
2019-02-14T07:16:30.340Z,7.60
2019-02-14T07:17:08.286Z,7.60
2019-02-14T07:17:46.381Z,7.60
2019-02-14T07:18:23.839Z,7.60
2019-02-14T07:19:01.973Z,7.60
2019-02-14T07:19:39.458Z,7.60
2019-02-14T07:20:17.629Z,7.60
2019-02-14T07:20:55.188Z,7.60
2019-02-14T07:21:32.864Z,7.60
2019-02-14T07:22:10.651Z,7.60
2019-02-14T07:22:48.406Z,7.60
2019-02-14T07:23:26.223Z,7.60
2019-02-14T07:24:04.052Z,7.60
2019-02-14T07:24:42.074Z,7.70
2019-02-14T07:25:19.942Z,7.70
2019-02-14T07:25:57.839Z,7.70
2019-02-14T07:26:35.613Z,7.70
2019-02-14T07:27:32.600Z,7.70
2019-02-14T07:28:10.592Z,7.60
2019-02-14T07:28:48.016Z,7.70
2019-02-14T07:29:25.783Z,7.70
2019-02-14T07:30:05.558Z,7.70
2019-02-14T07:30:43.544Z,7.70
2019-02-14T07:31:21.564Z,7.70
2019-02-14T07:32:01.714Z,7.70
2019-02-14T07:32:39.460Z,7.70
2019-02-14T07:33:17.516Z,7.70
2019-02-14T07:33:55.676Z,7.70
2019-02-14T07:34:33.495Z,7.70
2019-02-14T07:35:30.519Z,7.70
2019-02-14T07:36:08.584Z,7.70
2019-02-14T07:36:46.408Z,7.80
2019-02-14T07:37:26.907Z,7.70
2019-02-14T07:38:03.764Z,7.70
2019-02-14T07:38:41.086Z,7.80
2019-02-14T07:39:19.088Z,7.80
2019-02-14T07:39:56.940Z,7.80
2019-02-14T07:40:35.382Z,7.80
2019-02-14T07:41:13.357Z,7.80
2019-02-14T07:41:50.758Z,7.80
2019-02-14T07:42:28.852Z,7.80
2019-02-14T07:43:06.664Z,7.80
2019-02-14T07:43:44.064Z,7.80
2019-02-14T07:44:22.076Z,7.80
2019-02-14T07:44:59.794Z,7.80
2019-02-14T07:45:37.356Z,7.80
2019-02-14T07:46:22.499Z,7.90
2019-02-14T07:46:54.872Z,7.90
2019-02-14T07:47:32.626Z,7.90
2019-02-14T07:48:10.261Z,7.90
2019-02-14T07:48:48.103Z,7.90
2019-02-14T07:49:25.913Z,7.90
2019-02-14T07:50:04.006Z,7.90
2019-02-14T07:50:42.110Z,7.90
2019-02-14T07:51:19.549Z,7.90
2019-02-14T07:51:57.128Z,7.90
2019-02-14T07:52:35.457Z,7.90
2019-02-14T07:53:12.644Z,7.90
2019-02-14T07:53:50.561Z,7.90
2019-02-14T07:54:28.513Z,7.90
2019-02-14T07:55:06.867Z,7.90
2019-02-14T07:55:44.972Z,7.90
2019-02-14T07:56:22.856Z,7.90
2019-02-14T07:57:00.653Z,7.90
2019-02-14T07:57:38.508Z,8.00
2019-02-14T07:58:16.010Z,7.90
2019-02-14T07:58:53.668Z,8.00
2019-02-14T07:59:31.660Z,8.00
2019-02-14T08:00:12.307Z,8.00
2019-02-14T08:00:49.992Z,7.90
2019-02-14T08:01:30.058Z,8.00
2019-02-14T08:02:07.542Z,8.00
2019-02-14T08:02:45.632Z,8.00
2019-02-14T08:03:23.114Z,8.00
2019-02-14T08:04:00.493Z,8.00
2019-02-14T08:04:37.913Z,8.00
2019-02-14T08:05:15.140Z,8.00
2019-02-14T08:05:52.631Z,8.10
2019-02-14T08:06:30.645Z,8.10
2019-02-14T08:07:08.185Z,8.10
2019-02-14T08:07:45.768Z,8.10
2019-02-14T08:08:22.991Z,8.10
2019-02-14T08:09:00.942Z,8.10
2019-02-14T08:09:38.834Z,8.10
2019-02-14T08:10:17.256Z,8.10
2019-02-14T08:10:54.389Z,8.10
2019-02-14T08:11:31.979Z,8.10
2019-02-14T08:12:09.817Z,8.10
2019-02-14T08:12:47.594Z,8.10
2019-02-14T08:13:25.811Z,8.20
2019-02-14T08:14:03.272Z,8.10
2019-02-14T08:14:42.332Z,8.10
2019-02-14T08:15:20.329Z,8.20
2019-02-14T08:15:58.021Z,8.20
2019-02-14T08:16:35.846Z,8.20
2019-02-14T08:17:15.833Z,8.20
2019-02-14T08:17:53.540Z,8.20
2019-02-14T08:18:30.996Z,8.20
2019-02-14T08:19:08.754Z,8.20
2019-02-14T08:19:46.391Z,8.20
2019-02-14T08:20:24.249Z,8.20
2019-02-14T08:21:02.074Z,8.30
2019-02-14T08:21:41.372Z,8.30
2019-02-14T08:22:19.145Z,8.30
2019-02-14T08:22:56.415Z,8.30
2019-02-14T08:23:34.571Z,8.30
2019-02-14T08:24:12.780Z,8.30
2019-02-14T08:24:50.935Z,8.40
2019-02-14T08:25:29.005Z,8.40
2019-02-14T08:26:10.846Z,8.40
2019-02-14T08:26:46.336Z,8.40